Time;durP1;ratioP1;P1;durP2;ratioP2;P2;SDS_P1;SDS_P2;PMS_P1;PMS_P2;Temp;Humidity;BMP_temperature;BMP_pressure;BME280_temperature;BME280_humidity;BME280_pressure;Samples;Min_cycle;Max_cycle;Signal;HPM_P1;HPM_P2
2023/02/26 00:01:18;;;;;;;4.20;1.20;;;;;;;-1.96;80.11;100809.19;108756;1257;59112;-77
2023/02/26 00:03:48;;;;;;;4.10;1.50;;;;;;;-1.97;80.42;100810.85;108799;1257;74793;-77
2023/02/26 00:06:15;;;;;;;3.20;1.10;;;;;;;-1.99;80.85;100813.02;108863;1257;72502;-77
2023/02/26 00:08:42;;;;;;;2.90;1.10;;;;;;;-2.00;81.11;100818.96;108795;1257;73567;-77
2023/02/26 00:11:10;;;;;;;2.80;1.60;;;;;;;-2.00;81.12;100820.17;108716;1256;61695;-78
2023/02/26 00:13:38;;;;;;;4.10;1.60;;;;;;;-2.00;81.53;100828.48;108728;1257;60389;-77
2023/02/26 00:16:21;;;;;;;3.50;1.30;;;;;;;-1.98;81.91;100829.45;108845;1257;74578;-77
2023/02/26 00:18:48;;;;;;;5.60;1.30;;;;;;;-1.95;81.91;100834.60;108860;1257;72109;-77
2023/02/26 00:21:20;;;;;;;4.10;1.30;;;;;;;-1.92;82.29;100839.96;108835;1257;71533;-78
2023/02/26 00:23:47;;;;;;;3.50;1.20;;;;;;;-1.88;82.60;100841.15;108834;1257;59861;-78
2023/02/26 00:26:14;;;;;;;2.40;1.10;;;;;;;-1.85;82.95;100846.81;108909;1256;58985;-78
2023/02/26 00:28:42;;;;;;;3.90;1.30;;;;;;;-1.81;83.44;100848.01;108743;1256;73619;-78
2023/02/26 00:31:10;;;;;;;3.30;1.30;;;;;;;-1.77;83.32;100847.23;108841;1257;69709;-76
2023/02/26 00:33:38;;;;;;;4.10;1.30;;;;;;;-1.75;83.21;100849.91;108717;1257;71591;-76
2023/02/26 00:36:33;;;;;;;6.00;1.30;;;;;;;-1.75;83.13;100852.83;108821;1257;60511;-76
2023/02/26 00:39:30;;;;;;;6.10;1.40;;;;;;;-1.76;83.26;100856.88;108949;1256;60627;-77
2023/02/26 00:41:58;;;;;;;4.20;1.70;;;;;;;-1.77;83.51;100865.10;108852;1257;74335;-76
2023/02/26 00:44:25;;;;;;;4.90;1.20;;;;;;;-1.80;83.88;100863.69;108886;1256;69778;-77
2023/02/26 00:47:15;;;;;;;5.10;1.40;;;;;;;-1.79;84.26;100870.05;108917;1257;72678;-77
2023/02/26 00:50:01;;;;;;;3.20;1.30;;;;;;;-1.79;84.59;100878.00;108624;1257;62598;-77
2023/02/26 00:52:30;;;;;;;4.40;1.20;;;;;;;-1.73;84.56;100877.52;108896;1257;60273;-77
2023/02/26 00:54:57;;;;;;;3.70;1.10;;;;;;;-1.70;84.75;100877.48;108879;1257;74946;-77
2023/02/26 00:57:24;;;;;;;3.70;1.20;;;;;;;-1.65;84.67;100881.71;108686;1257;71049;-77
2023/02/26 00:59:51;;;;;;;4.00;1.00;;;;;;;-1.61;84.97;100881.51;108774;1257;72684;-77
2023/02/26 01:02:18;;;;;;;3.70;1.10;;;;;;;-1.56;84.72;100885.19;108822;1257;60746;-76
2023/02/26 01:04:47;;;;;;;3.90;1.00;;;;;;;-1.54;84.84;100883.83;108878;1257;59115;-77
2023/02/26 01:07:16;;;;;;;5.40;1.20;;;;;;;-1.52;84.89;100884.58;108694;1258;74705;-77
2023/02/26 01:09:43;;;;;;;3.30;1.20;;;;;;;-1.48;84.58;100883.63;108740;1257;71645;-77
2023/02/26 01:12:16;;;;;;;2.80;1.00;;;;;;;-1.46;84.74;100883.15;108730;1257;72845;-77
2023/02/26 01:14:46;;;;;;;3.50;1.10;;;;;;;-1.42;84.78;100882.80;108715;1257;62229;-76
2023/02/26 01:17:28;;;;;;;5.40;1.40;;;;;;;-1.43;84.84;100881.27;108734;1257;58782;-76
2023/02/26 01:20:09;;;;;;;3.20;1.10;;;;;;;-1.43;84.85;100882.83;108780;1257;74384;-77
2023/02/26 01:22:51;;;;;;;4.10;1.30;;;;;;;-1.42;84.80;100886.60;108926;1256;69939;-76
2023/02/26 01:25:39;;;;;;;4.30;1.30;;;;;;;-1.39;84.57;100892.16;108850;1256;72391;-77
2023/02/26 01:28:07;;;;;;;3.20;1.30;;;;;;;-1.41;84.68;100891.41;108832;1257;61062;-76
2023/02/26 01:30:34;;;;;;;4.40;1.40;;;;;;;-1.43;84.91;100899.13;108720;1258;59425;-77
2023/02/26 01:33:21;;;;;;;5.20;1.40;;;;;;;-1.46;85.14;100899.65;108854;1257;74949;-76
2023/02/26 01:35:51;;;;;;;2.30;1.20;;;;;;;-1.47;85.28;100903.71;108932;1257;70004;-76
2023/02/26 01:38:40;;;;;;;4.60;1.30;;;;;;;-1.48;85.50;100909.34;108911;1256;71468;-77
2023/02/26 01:41:16;;;;;;;5.30;1.20;;;;;;;-1.51;85.91;100907.94;108904;1256;61721;-76
2023/02/26 01:44:08;;;;;;;3.50;1.30;;;;;;;-1.53;86.45;100912.55;108864;1256;58893;-76
2023/02/26 01:46:57;;;;;;;3.10;0.80;;;;;;;-1.52;86.40;100917.89;108839;1257;74511;-76
2023/02/26 01:49:25;;;;;;;7.40;1.40;;;;;;;-1.51;86.66;100916.80;108810;1257;68974;-76
2023/02/26 01:51:55;;;;;;;3.80;1.10;;;;;;;-1.48;86.56;100917.66;108941;1256;70818;-76
2023/02/26 01:54:24;;;;;;;4.60;1.20;;;;;;;-1.44;86.65;100920.71;108803;1256;62013;-76
2023/02/26 01:56:58;;;;;;;3.70;1.30;;;;;;;-1.42;86.60;100926.45;108794;1258;60905;-76
2023/02/26 01:59:24;;;;;;;3.90;1.10;;;;;;;-1.37;86.44;100931.75;108923;1257;74769;-76
2023/02/26 02:01:53;;;;;;;3.50;0.80;;;;;;;-1.38;86.77;100937.84;108916;1256;69721;-77
2023/02/26 02:04:22;;;;;;;4.10;1.30;;;;;;;-1.38;87.11;100940.66;108817;1256;73028;-77
2023/02/26 02:06:50;;;;;;;3.90;1.20;;;;;;;-1.36;87.06;100946.73;108906;1256;60812;-77
2023/02/26 02:09:17;;;;;;;4.50;1.50;;;;;;;-1.34;86.96;100946.80;108825;1256;60106;-77
2023/02/26 02:12:08;;;;;;;3.10;0.90;;;;;;;-1.35;87.32;100951.36;108804;1257;74010;-77
2023/02/26 02:15:08;;;;;;;4.20;1.20;;;;;;;-1.35;87.30;100960.23;108865;1257;69678;-77
2023/02/26 02:18:00;;;;;;;5.10;1.50;;;;;;;-1.34;87.40;100965.71;108797;1257;71415;-77
2023/02/26 02:21:05;;;;;;;4.10;1.20;;;;;;;-1.32;87.37;100970.80;108862;1256;61028;-77
2023/02/26 02:23:42;;;;;;;5.20;1.40;;;;;;;-1.33;87.69;100972.95;108835;1257;59332;-77
2023/02/26 02:26:15;;;;;;;5.00;1.40;;;;;;;-1.31;87.34;100973.34;108682;1258;74670;-77
2023/02/26 02:29:03;;;;;;;2.80;1.10;;;;;;;-1.30;87.73;100979.21;108763;1257;70525;-77
2023/02/26 02:31:45;;;;;;;3.50;1.50;;;;;;;-1.31;87.87;100979.42;108860;1256;72753;-77
2023/02/26 02:34:24;;;;;;;3.50;1.30;;;;;;;-1.30;87.61;100981.27;108934;1257;62466;-77
2023/02/26 02:37:00;;;;;;;3.60;1.10;;;;;;;-1.27;87.44;100980.92;108914;1256;58970;-77
2023/02/26 02:39:39;;;;;;;4.30;1.30;;;;;;;-1.26;87.82;100981.02;108862;1256;75181;-77
2023/02/26 02:42:15;;;;;;;3.40;1.00;;;;;;;-1.31;87.89;100983.39;108867;1256;70928;-77
2023/02/26 02:44:48;;;;;;;4.30;1.10;;;;;;;-1.30;87.78;100985.75;108845;1257;72726;-77
2023/02/26 02:47:17;;;;;;;3.50;1.00;;;;;;;-1.33;88.19;100991.85;108835;1256;60493;-77
2023/02/26 02:50:10;;;;;;;3.60;1.20;;;;;;;-1.34;88.07;100993.64;108904;1256;60597;-77
2023/02/26 02:52:53;;;;;;;3.60;1.00;;;;;;;-1.33;88.19;101001.42;108941;1256;73456;-77
2023/02/26 02:55:33;;;;;;;4.60;1.20;;;;;;;-1.33;88.20;100999.69;108873;1256;71876;-77
2023/02/26 02:58:05;;;;;;;3.40;1.20;;;;;;;-1.35;88.25;100999.08;108845;1257;72506;-77
2023/02/26 03:00:37;;;;;;;4.60;1.70;;;;;;;-1.36;88.41;101000.90;108730;1256;60464;-77
2023/02/26 03:03:16;;;;;;;2.20;1.20;;;;;;;-1.36;88.43;101002.65;108873;1256;59178;-77
2023/02/26 03:05:43;;;;;;;3.50;1.10;;;;;;;-1.37;88.63;101006.14;108834;1257;73183;-77
2023/02/26 03:08:13;;;;;;;3.60;1.10;;;;;;;-1.37;88.96;101011.86;108881;1257;69697;-77
2023/02/26 03:10:40;;;;;;;3.50;1.00;;;;;;;-1.35;88.71;101012.81;108879;1256;72370;-77
2023/02/26 03:13:16;;;;;;;4.10;1.00;;;;;;;-1.35;88.84;101013.46;108815;1259;60774;-77
2023/02/26 03:16:17;;;;;;;4.50;2.20;;;;;;;-1.34;88.91;101017.75;108881;1256;60075;-77
2023/02/26 03:18:54;;;;;;;5.60;1.20;;;;;;;-1.32;88.77;101023.04;108874;1256;72590;-77
2023/02/26 03:21:33;;;;;;;5.10;1.00;;;;;;;-1.29;88.75;101024.92;108795;1257;71042;-77
2023/02/26 03:24:23;;;;;;;3.60;1.40;;;;;;;-1.28;88.71;101031.28;108771;1257;71223;-77
2023/02/26 03:26:58;;;;;;;3.60;0.80;;;;;;;-1.30;88.68;101033.13;108767;1258;60506;-77
2023/02/26 03:29:47;;;;;;;4.40;1.00;;;;;;;-1.27;88.63;101039.23;108838;1256;59100;-77
2023/02/26 03:32:29;;;;;;;3.90;0.90;;;;;;;-1.26;88.61;101038.82;108831;1257;73156;-77
2023/02/26 03:35:03;;;;;;;4.60;1.10;;;;;;;-1.26;88.29;101037.41;108728;1256;71134;-77
2023/02/26 03:37:36;;;;;;;2.80;1.40;;;;;;;-1.24;88.30;101038.52;108818;1257;72795;-77
2023/02/26 03:40:08;;;;;;;3.70;1.00;;;;;;;-1.21;88.26;101049.48;108740;1256;62015;-77
2023/02/26 03:42:54;;;;;;;5.40;1.30;;;;;;;-1.20;88.37;101051.33;108917;1255;59364;-77
2023/02/26 03:45:33;;;;;;;5.30;1.40;;;;;;;-1.17;88.08;101057.36;108832;1257;74936;-77
2023/02/26 03:48:04;;;;;;;2.10;0.90;;;;;;;-1.16;87.90;101059.77;108823;1256;71086;-77
2023/02/26 03:50:48;;;;;;;4.00;1.00;;;;;;;-1.14;87.87;101063.44;108884;1256;72688;-77
2023/02/26 03:53:21;;;;;;;4.00;0.90;;;;;;;-1.11;87.61;101065.55;108785;1256;61789;-77
2023/02/26 03:56:05;;;;;;;4.10;1.00;;;;;;;-1.10;87.71;101068.60;108737;1256;59947;-77
2023/02/26 03:58:32;;;;;;;4.40;1.20;;;;;;;-1.09;87.50;101077.55;108883;1256;73431;-77
2023/02/26 04:01:03;;;;;;;3.00;0.90;;;;;;;-1.10;87.54;101077.59;108821;1259;70061;-77
2023/02/26 04:03:52;;;;;;;4.30;1.00;;;;;;;-1.10;87.51;101081.62;108828;1256;71467;-77
2023/02/26 04:06:20;;;;;;;4.70;1.20;;;;;;;-1.08;87.37;101085.86;108874;1256;62523;-77
2023/02/26 04:08:47;;;;;;;2.30;0.90;;;;;;;-1.05;87.35;101089.33;108833;1257;58970;-77
2023/02/26 04:11:17;;;;;;;4.90;1.20;;;;;;;-1.05;87.11;101091.05;108737;1256;75539;-77
2023/02/26 04:13:44;;;;;;;3.30;1.00;;;;;;;-1.03;87.00;101090.42;108768;1256;71003;-77
2023/02/26 04:16:12;;;;;;;4.90;1.30;;;;;;;-1.05;86.75;101095.89;108583;1256;71227;-77
2023/02/26 04:18:40;;;;;;;3.10;1.20;;;;;;;-1.03;86.68;101097.67;108678;1257;60560;-77
2023/02/26 04:21:10;;;;;;;5.40;1.10;;;;;;;-1.00;86.50;101102.19;108802;1256;60047;-77
2023/02/26 04:23:36;;;;;;;5.00;1.00;;;;;;;-0.99;86.19;101107.02;108860;1256;74363;-77
2023/02/26 04:26:04;;;;;;;4.60;1.00;;;;;;;-0.98;86.04;101113.35;108728;1256;70900;-77
2023/02/26 04:28:31;;;;;;;3.80;1.00;;;;;;;-0.94;85.78;101112.30;108754;1257;72397;-77
2023/02/26 04:30:58;;;;;;;2.90;1.00;;;;;;;-0.92;85.60;101118.36;108740;1256;61374;-77
2023/02/26 04:33:26;;;;;;;3.80;1.10;;;;;;;-0.88;85.51;101122.18;108763;1257;59405;-77
2023/02/26 04:35:53;;;;;;;2.20;0.80;;;;;;;-0.88;84.97;101126.35;108901;1256;72914;-77
2023/02/26 04:38:20;;;;;;;4.00;1.30;;;;;;;-0.89;84.75;101134.72;108701;1258;71021;-77
2023/02/26 04:40:48;;;;;;;3.30;1.10;;;;;;;-0.88;84.59;101135.33;108854;1257;71177;-77
2023/02/26 04:43:15;;;;;;;3.60;1.00;;;;;;;-0.85;84.65;101140.02;108814;1257;60819;-77
2023/02/26 04:45:45;;;;;;;4.90;1.20;;;;;;;-0.86;84.26;101138.50;108785;1257;59522;-77
2023/02/26 04:48:13;;;;;;;2.70;1.00;;;;;;;-0.85;84.06;101141.76;108788;1256;72490;-77
2023/02/26 04:50:39;;;;;;;3.50;0.90;;;;;;;-0.83;84.11;101141.96;108871;1256;68983;-77
2023/02/26 04:53:07;;;;;;;3.30;1.20;;;;;;;-0.83;84.03;101144.97;108688;1257;71838;-77
2023/02/26 04:55:35;;;;;;;5.00;1.20;;;;;;;-0.83;83.92;101144.44;108856;1256;59782;-77
2023/02/26 04:58:02;;;;;;;3.90;1.10;;;;;;;-0.82;84.11;101147.98;108574;1257;59477;-77
2023/02/26 05:00:29;;;;;;;3.20;0.90;;;;;;;-0.82;83.89;101152.00;108771;1257;74842;-77
2023/02/26 05:02:56;;;;;;;3.40;0.90;;;;;;;-0.82;83.77;101162.77;108685;1257;71071;-77
2023/02/26 05:05:23;;;;;;;4.70;1.10;;;;;;;-0.82;83.83;101163.27;108722;1257;72404;-77
2023/02/26 05:07:52;;;;;;;3.30;0.80;;;;;;;-0.84;83.63;101166.55;108850;1258;61721;-77
2023/02/26 05:10:19;;;;;;;6.10;1.70;;;;;;;-0.84;83.51;101170.34;108839;1257;59473;-77
2023/02/26 05:12:46;;;;;;;5.10;1.30;;;;;;;-0.82;83.50;101174.04;108765;1256;74822;-77
2023/02/26 05:15:13;;;;;;;4.30;1.40;;;;;;;-0.80;83.41;101174.85;108771;1257;69824;-77
2023/02/26 05:17:40;;;;;;;4.60;1.00;;;;;;;-0.81;83.29;101180.61;108711;1257;72612;-77
2023/02/26 05:20:11;;;;;;;4.10;1.20;;;;;;;-0.80;83.18;101189.05;108779;1256;60615;-77
2023/02/26 05:22:38;;;;;;;3.60;1.20;;;;;;;-0.80;82.97;101192.71;108817;1257;60112;-77
2023/02/26 05:25:06;;;;;;;4.10;1.00;;;;;;;-0.82;82.79;101192.96;108836;1257;73671;-77
2023/02/26 05:27:33;;;;;;;4.40;1.00;;;;;;;-0.83;82.73;101198.23;108710;1256;71523;-77
2023/02/26 05:30:00;;;;;;;3.30;1.00;;;;;;;-0.86;82.56;101205.03;108662;1257;71223;-77
2023/02/26 05:32:27;;;;;;;4.50;1.20;;;;;;;-0.93;82.57;101209.23;108726;1257;60750;-77
2023/02/26 05:34:55;;;;;;;4.00;1.30;;;;;;;-0.99;82.66;101212.73;108828;1256;60162;-77
2023/02/26 05:37:22;;;;;;;3.40;0.90;;;;;;;-1.05;82.64;101218.28;108896;1256;73365;-77
2023/02/26 05:39:49;;;;;;;4.00;1.00;;;;;;;-1.13;82.69;101222.52;108720;1260;69669;-77
2023/02/26 05:42:16;;;;;;;3.80;1.30;;;;;;;-1.18;82.76;101223.55;108682;1263;71516;-77
2023/02/26 05:44:43;;;;;;;3.10;1.00;;;;;;;-1.26;82.47;101226.91;108877;1257;60408;-77
2023/02/26 05:47:10;;;;;;;3.40;0.90;;;;;;;-1.34;82.55;101231.00;108695;1256;59430;-77
2023/02/26 05:49:37;;;;;;;3.90;0.70;;;;;;;-1.41;82.61;101234.35;108872;1256;73241;-77
2023/02/26 05:52:04;;;;;;;1.60;0.80;;;;;;;-1.51;82.71;101237.65;108788;1257;69611;-77
2023/02/26 05:54:31;;;;;;;4.30;1.10;;;;;;;-1.59;83.11;101237.39;108664;1257;72391;-77
2023/02/26 05:56:58;;;;;;;3.60;1.10;;;;;;;-1.70;83.17;101244.73;108772;1259;60579;-77
2023/02/26 05:59:25;;;;;;;2.30;0.80;;;;;;;-1.75;83.28;101247.45;108787;1256;59142;-77
2023/02/26 06:01:52;;;;;;;4.40;1.10;;;;;;;-1.80;83.31;101253.79;108709;1257;73474;-77
2023/02/26 06:04:19;;;;;;;4.00;0.90;;;;;;;-1.86;83.70;101256.19;108883;1256;69950;-77
2023/02/26 06:06:46;;;;;;;5.30;1.10;;;;;;;-1.92;83.68;101261.88;108719;1257;72435;-77
2023/02/26 06:09:13;;;;;;;2.70;0.90;;;;;;;-1.96;83.86;101266.56;108684;1262;61128;-77
2023/02/26 06:11:40;;;;;;;2.40;0.90;;;;;;;-2.02;83.97;101265.36;108693;1256;60563;-77
2023/02/26 06:14:07;;;;;;;5.10;1.20;;;;;;;-2.05;83.86;101272.06;108814;1257;74500;-77
2023/02/26 06:16:34;;;;;;;2.60;0.90;;;;;;;-2.11;83.98;101272.53;108878;1257;69645;-77
2023/02/26 06:19:01;;;;;;;4.80;1.40;;;;;;;-2.13;84.08;101275.95;108708;1257;71701;-77
2023/02/26 06:21:28;;;;;;;2.80;1.00;;;;;;;-2.14;84.05;101283.10;108865;1256;60431;-77
2023/02/26 06:23:55;;;;;;;4.00;1.40;;;;;;;-2.16;84.14;101287.70;108987;1256;59810;-77
2023/02/26 06:26:23;;;;;;;4.00;1.50;;;;;;;-2.17;84.23;101297.64;108877;1257;74655;-77
2023/02/26 06:28:50;;;;;;;4.70;1.20;;;;;;;-2.18;84.26;101303.07;108772;1256;71662;-77
2023/02/26 06:31:17;;;;;;;2.60;1.10;;;;;;;-2.21;84.19;101304.30;108806;1262;71391;-77
2023/02/26 06:33:44;;;;;;;4.90;1.30;;;;;;;-2.23;84.02;101304.52;108707;1260;60873;-77
2023/02/26 06:36:11;;;;;;;5.90;1.10;;;;;;;-2.21;83.89;101308.09;108740;1262;60053;-77
2023/02/26 06:38:38;;;;;;;4.50;1.10;;;;;;;-2.19;84.03;101308.85;108853;1257;73197;-77
2023/02/26 06:41:05;;;;;;;3.10;1.20;;;;;;;-2.20;83.73;101310.63;108728;1258;70894;-77
2023/02/26 06:43:32;;;;;;;3.50;1.10;;;;;;;-2.20;83.80;101314.59;108785;1256;71120;-77
2023/02/26 06:45:59;;;;;;;3.60;1.00;;;;;;;-2.18;83.63;101320.23;108669;1256;62009;-77
2023/02/26 06:48:26;;;;;;;4.20;1.10;;;;;;;-2.17;83.90;101323.27;108894;1256;60047;-77
2023/02/26 06:50:53;;;;;;;4.40;1.10;;;;;;;-2.14;83.76;101322.13;108733;1256;75594;-77
2023/02/26 06:53:20;;;;;;;2.80;1.20;;;;;;;-2.12;83.57;101328.23;108767;1257;72552;-77
2023/02/26 06:55:51;;;;;;;2.20;0.90;;;;;;;-2.09;83.73;101334.33;108749;1258;72627;-77
2023/02/26 06:58:19;;;;;;;3.80;1.30;;;;;;;-2.04;83.57;101338.59;108888;1257;60512;-77
2023/02/26 07:00:46;;;;;;;4.50;1.40;;;;;;;-1.97;83.59;101349.82;108806;1257;59464;-77
2023/02/26 07:03:15;;;;;;;6.30;1.80;;;;;;;-1.86;84.03;101353.44;108629;1257;73114;-77
2023/02/26 07:05:43;;;;;;;4.30;1.30;;;;;;;-1.71;84.04;101357.69;108762;1257;70383;-77
2023/02/26 07:08:09;;;;;;;4.10;1.50;;;;;;;-1.60;83.34;101359.23;108778;1257;72458;-77
2023/02/26 07:10:36;;;;;;;4.70;1.20;;;;;;;-1.46;83.05;101362.13;108880;1257;60995;-77
2023/02/26 07:13:03;;;;;;;4.40;1.40;;;;;;;-1.34;82.57;101369.13;108914;1256;59967;-77
2023/02/26 07:15:30;;;;;;;3.60;1.10;;;;;;;-1.33;81.63;101376.70;108899;1256;73495;-77
2023/02/26 07:17:58;;;;;;;2.60;0.90;;;;;;;-1.33;81.37;101379.50;108769;1257;69982;-77
2023/02/26 07:20:29;;;;;;;3.70;1.40;;;;;;;-1.38;81.24;101384.63;108802;1257;73300;-77
2023/02/26 07:22:56;;;;;;;3.80;1.30;;;;;;;-1.35;81.37;101388.79;108713;1256;62804;-77
2023/02/26 07:25:24;;;;;;;3.90;1.10;;;;;;;-1.30;81.46;101390.27;108838;1256;60774;-77
2023/02/26 07:27:51;;;;;;;4.50;1.40;;;;;;;-1.29;81.06;101395.40;108851;1256;74764;-77
2023/02/26 07:30:18;;;;;;;4.30;1.30;;;;;;;-1.24;81.28;101395.80;108894;1256;71281;-77
2023/02/26 07:32:45;;;;;;;5.00;1.00;;;;;;;-1.17;80.87;101398.94;108831;1257;72717;-77
2023/02/26 07:35:12;;;;;;;3.60;0.90;;;;;;;-1.15;80.65;101403.68;108797;1256;62808;-77
2023/02/26 07:37:40;;;;;;;2.90;1.00;;;;;;;-1.09;80.75;101409.30;108833;1256;59000;-77
2023/02/26 07:40:10;;;;;;;2.80;0.90;;;;;;;-1.04;80.55;101410.38;108848;1256;74437;-77
2023/02/26 07:42:38;;;;;;;4.00;1.10;;;;;;;-1.01;80.01;101420.46;108945;1256;70978;-77
2023/02/26 07:45:07;;;;;;;2.80;0.90;;;;;;;-0.96;79.68;101424.57;108793;1257;71198;-77
2023/02/26 07:47:34;;;;;;;3.20;1.10;;;;;;;-0.92;79.61;101425.02;108631;1256;386433;-77
2023/02/26 07:50:01;;;;;;;3.20;1.00;;;;;;;-0.82;79.60;101424.66;108891;1256;60020;-77
2023/02/26 07:52:27;;;;;;;6.20;1.00;;;;;;;-0.75;79.34;101428.45;108913;1257;73724;-77
2023/02/26 07:54:54;;;;;;;2.30;0.90;;;;;;;-0.66;79.23;101430.23;108800;1257;70369;-77
2023/02/26 07:57:22;;;;;;;3.70;0.90;;;;;;;-0.61;78.21;101436.35;108777;1257;72072;-77
2023/02/26 07:59:49;;;;;;;2.40;1.00;;;;;;;-0.57;77.98;101442.56;108919;1256;59616;-77
2023/02/26 08:02:19;;;;;;;3.20;1.00;;;;;;;-0.58;77.42;101443.48;108817;1256;60047;-77
2023/02/26 08:04:46;;;;;;;3.30;0.90;;;;;;;-0.59;77.09;101447.75;108749;1256;74478;-77
2023/02/26 08:07:13;;;;;;;3.30;0.90;;;;;;;-0.58;77.08;101454.12;108765;1256;70902;-77
2023/02/26 08:09:41;;;;;;;3.80;1.00;;;;;;;-0.50;77.44;101456.45;108887;1257;71563;-77
2023/02/26 08:12:07;;;;;;;4.70;1.10;;;;;;;-0.40;77.20;101459.34;108882;1257;59673;-77
2023/02/26 08:14:35;;;;;;;2.40;0.70;;;;;;;-0.31;76.50;101465.97;108819;1256;59449;-77
2023/02/26 08:17:01;;;;;;;2.20;1.00;;;;;;;-0.25;75.60;101466.36;108891;1256;73195;-77
2023/02/26 08:19:29;;;;;;;3.10;0.70;;;;;;;-0.20;74.94;101470.59;108855;1255;71194;-77
2023/02/26 08:21:58;;;;;;;2.60;0.90;;;;;;;-0.08;75.36;101472.19;108794;1258;71985;-77
2023/02/26 08:24:25;;;;;;;3.80;0.90;;;;;;;0.02;74.23;101472.15;108896;1257;61424;-77
2023/02/26 08:26:52;;;;;;;3.70;0.90;;;;;;;0.05;73.55;101482.03;108839;1256;59100;-77
2023/02/26 08:29:19;;;;;;;3.60;0.70;;;;;;;0.12;73.30;101481.61;108829;1256;73006;-77
2023/02/26 08:31:46;;;;;;;2.10;0.80;;;;;;;0.21;73.31;101486.00;108808;1256;70332;-77
2023/02/26 08:34:14;;;;;;;4.40;1.00;;;;;;;0.31;72.52;101491.33;108770;1256;71143;-77
2023/02/26 08:36:41;;;;;;;3.20;0.80;;;;;;;0.42;72.19;101497.33;108819;1258;59688;-77
2023/02/26 08:39:08;;;;;;;1.70;0.70;;;;;;;0.54;72.54;101504.45;108885;1258;60086;-76
2023/02/26 08:41:35;;;;;;;3.80;1.30;;;;;;;0.66;71.74;101504.29;108809;1257;74692;-78
2023/02/26 08:44:02;;;;;;;1.60;0.80;;;;;;;0.76;71.56;101506.95;108783;1256;69637;-78
2023/02/26 08:46:29;;;;;;;3.50;0.70;;;;;;;0.85;70.81;101510.11;108890;1257;72520;-78
2023/02/26 08:48:58;;;;;;;2.00;0.70;;;;;;;0.87;70.29;101512.42;108873;1256;61234;-79
2023/02/26 08:51:25;;;;;;;2.80;0.70;;;;;;;0.95;70.39;101516.45;108706;1256;59229;-79
2023/02/26 08:53:53;;;;;;;2.50;0.70;;;;;;;1.00;69.95;101512.13;108822;1256;73483;-79
2023/02/26 08:56:23;;;;;;;1.80;0.60;;;;;;;1.02;68.76;101516.20;108738;1256;70883;-79
2023/02/26 08:58:51;;;;;;;2.70;0.50;;;;;;;1.05;68.66;101522.44;108808;1256;72428;-79
2023/02/26 09:01:18;;;;;;;3.50;0.70;;;;;;;1.12;68.40;101525.73;108691;1262;61028;-79
2023/02/26 09:03:45;;;;;;;3.50;0.70;;;;;;;1.13;68.06;101524.22;108693;1263;61200;-79
2023/02/26 09:06:12;;;;;;;2.60;0.80;;;;;;;1.09;67.80;101528.86;108889;1256;72854;-79
2023/02/26 09:08:39;;;;;;;4.80;0.90;;;;;;;1.17;68.15;101537.58;108747;1259;70894;-79
2023/02/26 09:11:06;;;;;;;2.10;0.80;;;;;;;1.28;68.15;101542.89;108731;1256;71131;-79
2023/02/26 09:13:33;;;;;;;2.50;0.90;;;;;;;1.38;68.01;101546.77;108844;1260;60930;-79
2023/02/26 09:16:04;;;;;;;3.30;0.80;;;;;;;1.49;67.64;101549.21;108745;1257;60622;-79
2023/02/26 09:18:31;;;;;;;2.90;0.80;;;;;;;1.54;66.47;101548.58;108709;1263;72469;-79
2023/02/26 09:20:58;;;;;;;3.30;0.70;;;;;;;1.54;65.97;101546.31;108795;1256;69729;-79
2023/02/26 09:23:25;;;;;;;2.40;0.70;;;;;;;1.62;65.90;101548.45;108689;1257;72645;-79
2023/02/26 09:25:55;;;;;;;1.80;0.70;;;;;;;1.73;66.52;101547.55;108740;1256;61546;-79
2023/02/26 09:28:24;;;;;;;3.30;0.90;;;;;;;1.88;65.70;101549.43;108766;1256;59912;-79
2023/02/26 09:30:52;;;;;;;3.20;0.70;;;;;;;1.97;65.09;101554.20;108749;1256;73279;-79
2023/02/26 09:33:19;;;;;;;3.00;0.70;;;;;;;2.02;63.64;101554.98;108725;1256;70399;-79
2023/02/26 09:35:48;;;;;;;3.00;0.90;;;;;;;2.03;62.97;101552.99;108762;1257;71451;-79
2023/02/26 09:38:15;;;;;;;2.60;0.70;;;;;;;2.06;62.57;101555.73;108764;1256;61018;-79
2023/02/26 09:40:49;;;;;;;2.50;0.60;;;;;;;2.03;62.43;101561.70;108799;1256;58982;-79
2023/02/26 09:43:48;;;;;;;3.10;0.80;;;;;;;2.07;61.95;101562.49;108930;1256;73682;-79
2023/02/26 09:46:37;;;;;;;2.10;0.60;;;;;;;2.18;61.45;101559.85;108753;1257;69686;-79
2023/02/26 09:49:28;;;;;;;2.30;0.80;;;;;;;2.24;60.46;101563.88;108863;1256;71587;-79
2023/02/26 09:52:07;;;;;;;2.50;0.80;;;;;;;2.30;59.63;101564.33;108837;1257;60023;-78
2023/02/26 09:54:44;;;;;;;4.40;1.00;;;;;;;2.43;60.66;101563.84;108861;1256;60830;-78
2023/02/26 09:57:19;;;;;;;2.60;0.60;;;;;;;2.54;59.98;101565.55;108850;1256;74432;-78
2023/02/26 09:59:47;;;;;;;3.70;0.80;;;;;;;2.71;59.54;101569.13;108884;1258;69701;-78
2023/02/26 10:02:29;;;;;;;2.60;0.50;;;;;;;2.82;58.15;101574.71;108862;1256;72856;-78
2023/02/26 10:05:17;;;;;;;2.10;0.70;;;;;;;2.73;56.35;101577.09;108886;1257;60464;-78
2023/02/26 10:07:58;;;;;;;2.00;0.70;;;;;;;2.80;57.70;101579.23;108873;1257;59078;-79
2023/02/26 10:10:31;;;;;;;2.10;0.60;;;;;;;2.96;57.52;101582.83;108854;1260;74927;-79
2023/02/26 10:12:59;;;;;;;4.30;0.80;;;;;;;3.12;57.07;101582.83;108888;1256;72446;-79
2023/02/26 10:15:36;;;;;;;2.10;0.60;;;;;;;3.26;57.04;101584.99;108697;1259;73990;-79
2023/02/26 10:18:39;;;;;;;1.30;0.60;;;;;;;3.21;53.50;101594.77;108707;1258;60628;-79
2023/02/26 10:21:13;;;;;;;2.60;0.80;;;;;;;3.12;53.91;101593.84;108653;1256;60067;-79
2023/02/26 10:23:56;;;;;;;1.80;0.60;;;;;;;3.20;55.08;101590.11;108866;1256;74530;-79
2023/02/26 10:26:28;;;;;;;2.40;0.80;;;;;;;3.31;54.31;101594.63;108892;1257;69659;-79
2023/02/26 10:29:16;;;;;;;2.90;0.70;;;;;;;3.44;54.29;101597.58;108869;1258;71265;-79
2023/02/26 10:31:49;;;;;;;2.00;0.70;;;;;;;3.38;52.26;101599.58;108897;1256;59372;-79
2023/02/26 10:34:31;;;;;;;2.00;0.50;;;;;;;3.31;51.19;101603.77;108987;1257;59022;-79
2023/02/26 10:37:18;;;;;;;2.50;0.90;;;;;;;3.25;51.06;101600.79;108945;1256;75741;-79
2023/02/26 10:40:08;;;;;;;1.70;0.70;;;;;;;3.43;52.41;101602.21;108868;1256;71228;-79
2023/02/26 10:42:42;;;;;;;2.90;0.50;;;;;;;3.66;51.43;101606.67;108781;1257;71114;-79
2023/02/26 10:45:54;;;;;;;3.40;1.00;;;;;;;3.76;49.52;101608.86;108775;1262;59186;-79
2023/02/26 10:48:46;;;;;;;2.60;0.60;;;;;;;3.75;48.81;101607.69;108830;1256;58964;-79
2023/02/26 10:51:18;;;;;;;3.00;0.50;;;;;;;3.74;48.53;101615.13;108773;1256;74750;-80
2023/02/26 10:53:52;;;;;;;1.50;0.50;;;;;;;3.75;48.68;101612.92;108940;1256;71338;-80
2023/02/26 10:56:29;;;;;;;2.70;0.90;;;;;;;3.78;49.02;101614.82;108811;1262;72470;-79
2023/02/26 10:58:56;;;;;;;2.70;0.80;;;;;;;3.84;49.22;101616.32;108944;1256;59445;-79
2023/02/26 11:01:26;;;;;;;2.10;0.60;;;;;;;3.92;48.15;101622.39;108816;1257;59764;-80
2023/02/26 11:04:01;;;;;;;2.20;0.70;;;;;;;4.03;49.02;101624.38;108985;1256;73541;-79
2023/02/26 11:06:32;;;;;;;2.10;0.60;;;;;;;4.10;47.67;101625.30;108939;1256;71182;-79
2023/02/26 11:09:01;;;;;;;3.80;0.80;;;;;;;4.09;48.33;101626.73;108808;1257;72987;-79
2023/02/26 11:11:49;;;;;;;2.70;0.70;;;;;;;4.25;49.21;101627.05;108882;1257;59301;-80
2023/02/26 11:14:19;;;;;;;1.80;0.60;;;;;;;4.35;47.73;101627.36;108795;1256;60094;-80
2023/02/26 11:16:59;;;;;;;2.50;0.80;;;;;;;4.44;46.89;101626.69;108726;1265;73927;-79
2023/02/26 11:19:48;;;;;;;1.20;0.40;;;;;;;4.45;45.41;101629.27;108895;1256;72458;-80
2023/02/26 11:22:16;;;;;;;2.80;0.80;;;;;;;4.50;46.10;101632.96;108858;1260;72450;-79
2023/02/26 11:24:47;;;;;;;2.70;0.90;;;;;;;4.62;47.09;101631.33;108871;1256;59329;-79
2023/02/26 11:27:18;;;;;;;3.40;1.00;;;;;;;4.72;45.73;101634.11;108910;1256;60366;-80
2023/02/26 11:29:52;;;;;;;2.50;0.70;;;;;;;4.83;45.89;101634.33;108946;1256;73194;-80
2023/02/26 11:32:22;;;;;;;2.80;0.90;;;;;;;5.02;46.28;101639.09;108799;1257;70793;-79
2023/02/26 11:34:51;;;;;;;2.00;0.80;;;;;;;5.09;45.24;101645.18;108768;1256;71298;-79
2023/02/26 11:37:20;;;;;;;1.70;0.40;;;;;;;5.20;45.18;101645.77;108810;1256;59251;-79
2023/02/26 11:39:57;;;;;;;2.10;0.80;;;;;;;5.26;44.44;101645.12;108787;1256;59143;-79
2023/02/26 11:42:25;;;;;;;2.80;0.50;;;;;;;5.44;45.39;101642.53;108770;1256;73143;-79